Time;durP1;ratioP1;P1;durP2;ratioP2;P2;SDS_P1;SDS_P2;PMS_P1;PMS_P2;Temp;Humidity;BMP_temperature;BMP_pressure;BME280_temperature;BME280_humidity;BME280_pressure;Samples;Min_cycle;Max_cycle;Signal;HPM_P1;HPM_P2
2020/12/07 00:01:10;;;;;;;16.95;9.05;;;;;;;4.43;79.76;97960.56;3849259;23;20032;-80
2020/12/07 00:02:41;;;;;;;17.92;9.80;;;;;;;4.38;79.42;97958.38;3831700;22;20028;-80
2020/12/07 00:04:19;;;;;;;14.05;8.68;;;;;;;4.36;79.64;97949.75;3831434;23;20022;-80
2020/12/07 00:05:53;;;;;;;14.00;8.68;;;;;;;4.44;79.53;97955.09;3843371;23;20025;-81
2020/12/07 00:07:25;;;;;;;17.52;9.35;;;;;;;4.46;79.33;97953.13;3850254;23;20025;-80
2020/12/07 00:08:57;;;;;;;13.93;7.78;;;;;;;4.46;79.33;97945.19;3846802;22;20021;-80
2020/12/07 00:10:27;;;;;;;16.50;9.23;;;;;;;4.47;79.17;97946.84;3847773;23;20035;-81
2020/12/07 00:11:59;;;;;;;14.48;7.70;;;;;;;4.54;79.21;97944.41;3847958;23;20197;-80
2020/12/07 00:13:30;;;;;;;15.95;9.57;;;;;;;4.57;79.22;97941.47;3850543;23;20024;-81
2020/12/07 00:15:01;;;;;;;16.13;9.90;;;;;;;4.55;78.83;97938.13;3847176;22;20028;-81
2020/12/07 00:16:34;;;;;;;15.30;8.40;;;;;;;4.53;79.04;97940.09;3850663;23;20025;-80
2020/12/07 00:18:05;;;;;;;15.88;9.30;;;;;;;4.59;78.96;97943.94;3847483;23;20028;-81
2020/12/07 00:19:36;;;;;;;18.33;9.98;;;;;;;4.52;78.98;97944.59;3850162;23;20335;-80
2020/12/07 00:21:08;;;;;;;17.63;10.45;;;;;;;4.50;78.92;97941.25;3829202;22;20089;-80
2020/12/07 00:22:39;;;;;;;17.58;10.23;;;;;;;4.46;79.02;97944.38;3829211;22;20022;-80
2020/12/07 00:24:11;;;;;;;16.73;10.05;;;;;;;4.48;79.22;97945.88;3830506;23;20036;-81
2020/12/07 00:25:43;;;;;;;17.52;10.35;;;;;;;4.44;79.29;97939.22;3826615;22;20056;-80
2020/12/07 00:27:19;;;;;;;18.55;10.45;;;;;;;4.46;79.07;97945.19;3829820;23;20026;-80
2020/12/07 00:28:51;;;;;;;17.27;10.02;;;;;;;4.45;79.18;97943.53;3829724;23;20026;-80
2020/12/07 00:30:22;;;;;;;17.52;10.10;;;;;;;4.46;79.33;97945.19;3847990;23;20028;-80
2020/12/07 00:31:54;;;;;;;18.25;10.10;;;;;;;4.49;79.22;97950.19;3845352;22;20017;-80
2020/12/07 00:33:25;;;;;;;15.90;9.02;;;;;;;4.54;79.16;97949.72;3849304;23;20025;-81
2020/12/07 00:34:56;;;;;;;17.92;10.07;;;;;;;4.45;79.11;97955.94;3847038;23;20025;-81
2020/12/07 00:36:28;;;;;;;20.10;11.18;;;;;;;4.50;79.30;97962.44;3849677;23;20059;-80
2020/12/07 00:38:00;;;;;;;17.58;9.35;;;;;;;4.47;79.15;97949.50;3847010;22;21130;-81
2020/12/07 00:39:31;;;;;;;16.73;9.50;;;;;;;4.56;79.11;97954.84;3847996;23;20017;-80
2020/12/07 00:41:03;;;;;;;;;;;;;;;4.47;79.05;97960.09;3846195;23;20017;-81
2020/12/07 00:42:34;;;;;;;16.83;10.27;;;;;;;4.50;79.30;97967.72;3848661;23;19916;-80
2020/12/07 00:44:05;;;;;;;21.75;11.52;;;;;;;4.44;79.35;97952.44;3840828;22;20036;-81
2020/12/07 00:45:36;;;;;;;17.98;10.85;;;;;;;4.47;79.32;97946.03;3830566;23;20532;-81
2020/12/07 00:47:09;;;;;;;19.38;11.10;;;;;;;4.48;79.31;97945.06;3833550;22;20020;-80
2020/12/07 00:48:40;;;;;;;19.92;10.73;;;;;;;4.45;79.37;97940.06;3849932;23;20032;-80
2020/12/07 00:50:12;;;;;;;16.38;10.23;;;;;;;4.49;79.43;97933.47;3845012;22;20017;-80
2020/12/07 00:51:42;;;;;;;18.63;10.68;;;;;;;4.44;79.58;97920.69;3848706;23;20021;-80
2020/12/07 00:53:14;;;;;;;18.23;10.70;;;;;;;4.46;79.54;97929.31;3840748;23;20080;-81
2020/12/07 00:54:44;;;;;;;18.85;10.93;;;;;;;4.46;79.58;97924.03;3829091;23;20029;-80
2020/12/07 00:56:16;;;;;;;19.80;10.68;;;;;;;4.48;79.73;97930.00;3831742;22;20027;-81
2020/12/07 00:57:47;;;;;;;20.58;11.00;;;;;;;4.50;79.57;97930.69;3845630;23;20447;-80
2020/12/07 00:59:17;;;;;;;18.63;10.02;;;;;;;4.52;79.52;97939.28;3842094;23;20071;-80
2020/12/07 01:00:49;;;;;;;;;;;;;;;4.45;79.84;97940.88;3844759;23;20486;-81
2020/12/07 01:02:22;;;;;;;19.92;10.57;;;;;;;4.52;79.96;97943.75;3843565;22;20000;-80
2020/12/07 01:03:53;;;;;;;19.98;10.40;;;;;;;4.52;79.69;97941.09;3845286;23;20028;-80
2020/12/07 01:05:25;;;;;;;21.65;11.10;;;;;;;4.56;79.62;97944.25;3832117;23;20021;-80
2020/12/07 01:06:56;;;;;;;20.65;12.30;;;;;;;4.53;79.63;97948.03;3827399;23;20598;-81
2020/12/07 01:08:27;;;;;;;21.60;12.18;;;;;;;4.48;79.98;97961.75;3832949;23;20036;-80
2020/12/07 01:10:00;;;;;;;22.95;14.82;;;;;;;4.41;79.92;97957.22;3842824;23;20013;-80
2020/12/07 01:11:30;;;;;;;22.13;12.88;;;;;;;4.39;80.19;97956.59;3842852;22;20124;-81
2020/12/07 01:13:02;;;;;;;26.08;14.70;;;;;;;4.30;80.25;97951.22;3846430;23;20021;-80
2020/12/07 01:14:33;;;;;;;22.83;12.00;;;;;;;4.34;80.42;97957.06;3843009;22;20025;-80
2020/12/07 01:16:04;;;;;;;20.98;12.40;;;;;;;4.41;80.28;97957.22;3845803;23;20021;-81
2020/12/07 01:17:36;;;;;;;19.35;11.60;;;;;;;4.43;80.49;97972.00;3843500;22;20080;-80
2020/12/07 01:19:08;;;;;;;21.30;11.63;;;;;;;4.46;80.15;97970.84;3845068;23;20044;-81
2020/12/07 01:20:41;;;;;;;20.92;11.65;;;;;;;4.44;80.44;97975.44;3843348;22;20040;-81
2020/12/07 01:22:14;;;;;;;23.40;12.60;;;;;;;4.44;80.39;97973.63;3845639;23;20020;-80
2020/12/07 01:23:45;;;;;;;20.27;12.35;;;;;;;4.41;80.39;97963.38;3828698;22;20021;-80
2020/12/07 01:25:17;;;;;;;24.65;13.02;;;;;;;4.38;80.68;97966.31;3829150;23;20179;-81
2020/12/07 01:26:48;;;;;;;21.17;12.48;;;;;;;4.41;80.78;97962.53;3839187;22;20021;-80
2020/12/07 01:28:19;;;;;;;22.23;13.27;;;;;;;4.41;80.82;97962.53;3846383;23;20024;-80
2020/12/07 01:29:50;;;;;;;23.40;12.70;;;;;;;4.40;80.93;97955.56;3842906;22;20025;-81
2020/12/07 01:31:21;;;;;;;21.20;12.57;;;;;;;4.43;80.81;97961.41;3845457;23;20044;-81
2020/12/07 01:32:53;;;;;;;20.38;11.25;;;;;;;4.49;80.73;97971.34;3843960;22;20025;-80
2020/12/07 01:34:26;;;;;;;22.33;12.30;;;;;;;4.48;80.78;97969.69;3846517;23;20032;-80
2020/12/07 01:35:57;;;;;;;21.83;13.23;;;;;;;4.44;80.66;97970.97;3843090;23;20079;-80
2020/12/07 01:37:28;;;;;;;23.60;12.40;;;;;;;4.49;80.84;97971.34;3845620;23;20326;-80
2020/12/07 01:38:59;;;;;;;23.17;12.98;;;;;;;4.51;80.87;97964.09;3841766;23;20021;-80
2020/12/07 01:40:30;;;;;;;25.40;13.25;;;;;;;4.49;80.73;97962.56;3843543;23;20044;-81
2020/12/07 01:42:03;;;;;;;23.98;13.18;;;;;;;4.57;80.63;97967.09;3841187;22;20022;-81
2020/12/07 01:43:34;;;;;;;24.52;12.55;;;;;;;4.62;80.51;97970.09;3844466;23;20032;-81
2020/12/07 01:45:10;;;;;;;25.88;14.07;;;;;;;4.61;80.37;97957.84;3781379;22;20026;-80
2020/12/07 01:46:43;;;;;;;21.90;12.25;;;;;;;4.60;80.40;97964.94;3833248;23;20025;-81
2020/12/07 01:48:14;;;;;;;25.55;13.63;;;;;;;4.52;80.30;97947.22;3852184;23;20013;-81
2020/12/07 01:49:46;;;;;;;25.90;14.05;;;;;;;4.52;80.31;97949.88;3848562;22;20009;-81
2020/12/07 01:51:18;;;;;;;20.67;12.00;;;;;;;4.52;80.24;97957.81;3848519;23;20025;-81
2020/12/07 01:52:50;;;;;;;21.27;12.30;;;;;;;4.50;80.06;97957.13;3844221;23;20072;-80
2020/12/07 01:54:21;;;;;;;26.80;13.27;;;;;;;4.55;80.37;97964.59;3851445;23;20017;-80
2020/12/07 01:55:54;;;;;;;23.08;12.38;;;;;;;4.52;80.06;97955.16;3850441;22;20020;-80
2020/12/07 01:57:25;;;;;;;24.10;13.18;;;;;;;4.57;80.28;97956.50;3852733;23;20029;-80
2020/12/07 01:59:12;;;;;;;23.42;12.75;;;;;;;4.52;79.97;97949.03;3841952;23;20021;-80
2020/12/07 02:00:49;;;;;;;22.73;12.95;;;;;;;4.52;80.04;97963.09;3852628;23;20001;-80
2020/12/07 02:02:23;;;;;;;21.60;11.65;;;;;;;4.56;80.20;97960.13;3842569;22;20017;-80
2020/12/07 02:03:55;;;;;;;23.42;12.02;;;;;;;4.53;80.35;97967.38;3835808;23;20044;-80
2020/12/07 02:05:27;;;;;;;27.55;13.85;;;;;;;4.51;80.42;97968.53;3836161;23;20032;-80
2020/12/07 02:06:58;;;;;;;20.85;12.55;;;;;;;4.51;80.38;97965.88;3845178;23;20025;-80
2020/12/07 02:08:30;;;;;;;23.05;11.80;;;;;;;4.47;80.09;97970.66;3843453;22;20039;-81
2020/12/07 02:10:01;;;;;;;21.95;12.40;;;;;;;4.51;80.11;97973.84;3842548;23;20021;-80
2020/12/07 02:11:33;;;;;;;20.67;11.80;;;;;;;4.56;80.07;97981.31;3841368;22;20021;-80
2020/12/07 02:13:04;;;;;;;19.27;11.52;;;;;;;4.49;79.97;97983.72;3843440;23;20021;-80
2020/12/07 02:14:36;;;;;;;21.17;11.13;;;;;;;4.53;80.02;97988.56;3828980;22;20081;-81
2020/12/07 02:16:08;;;;;;;19.83;10.20;;;;;;;4.59;79.66;97987.09;3826927;23;20021;-80
2020/12/07 02:17:40;;;;;;;19.92;11.65;;;;;;;4.59;79.68;97984.47;3836231;23;20036;-80
2020/12/07 02:19:12;;;;;;;16.17;9.40;;;;;;;4.58;79.48;97989.91;3845412;23;20029;-80
2020/12/07 02:20:47;;;;;;;18.10;10.02;;;;;;;4.62;79.28;97993.94;3841889;22;20024;-80
2020/12/07 02:22:18;;;;;;;17.05;10.32;;;;;;;4.61;79.51;97992.25;3845947;23;20029;-80
2020/12/07 02:23:49;;;;;;;18.58;10.40;;;;;;;4.62;79.27;98001.88;3841672;23;20025;-80
2020/12/07 02:25:21;;;;;;;19.38;10.27;;;;;;;4.56;79.02;98002.47;3846438;23;20044;-80
2020/12/07 02:26:52;;;;;;;17.88;10.38;;;;;;;4.64;79.18;98006.00;3843487;22;20331;-80
2020/12/07 02:28:24;;;;;;;19.20;10.63;;;;;;;4.52;78.85;98007.25;3844168;23;20025;-80
2020/12/07 02:29:55;;;;;;;18.33;10.63;;;;;;;4.48;79.23;98014.66;3842614;23;20025;-81
2020/12/07 02:31:26;;;;;;;19.17;9.90;;;;;;;4.55;78.86;98012.25;3844318;23;20021;-80
2020/12/07 02:32:58;;;;;;;21.88;10.07;;;;;;;4.55;78.79;98014.03;3843611;23;20085;-80
2020/12/07 02:34:28;;;;;;;21.00;11.00;;;;;;;4.49;78.90;98024.28;3846962;23;20394;-80
2020/12/07 02:36:02;;;;;;;16.98;9.48;;;;;;;4.44;78.73;98021.25;3845631;22;20053;-80
2020/12/07 02:37:34;;;;;;;16.20;8.85;;;;;;;4.56;78.67;98029.78;3850471;23;20458;-80
2020/12/07 02:39:05;;;;;;;16.92;9.30;;;;;;;4.61;78.66;98024.84;3846887;22;20021;-81
2020/12/07 02:40:37;;;;;;;19.27;10.43;;;;;;;4.65;78.50;98031.50;3848307;23;20259;-81
2020/12/07 02:42:10;;;;;;;15.88;9.05;;;;;;;4.66;78.53;98025.22;3846179;23;20013;-80
2020/12/07 02:43:41;;;;;;;16.88;9.13;;;;;;;4.69;78.52;98024.06;3847373;22;20040;-81
2020/12/07 02:45:15;;;;;;;18.30;10.32;;;;;;;4.66;78.63;98024.38;3850512;23;20021;-80
2020/12/07 02:46:46;;;;;;;18.00;10.63;;;;;;;4.64;78.45;98021.03;3847046;22;20473;-80
2020/12/07 02:48:18;;;;;;;15.35;8.50;;;;;;;4.67;78.58;98032.19;3848629;23;20048;-80
2020/12/07 02:50:02;;;;;;;20.05;10.50;;;;;;;4.62;78.15;98023.03;3850722;23;20012;-80
2020/12/07 02:51:35;;;;;;;16.15;9.65;;;;;;;4.56;78.29;98023.66;3855460;23;20069;-81
2020/12/07 02:53:07;;;;;;;15.32;8.57;;;;;;;4.50;78.34;98015.34;3851611;22;20021;-81
2020/12/07 02:54:44;;;;;;;14.27;8.00;;;;;;;4.53;78.30;98017.66;3855145;23;20009;-80
2020/12/07 02:56:22;;;;;;;15.48;7.60;;;;;;;4.53;78.34;98009.72;3852745;22;20005;-80
2020/12/07 02:57:53;;;;;;;13.85;7.65;;;;;;;4.50;78.63;98014.50;3853778;23;20016;-81
2020/12/07 02:59:24;;;;;;;14.10;7.53;;;;;;;4.49;78.48;98015.50;3852349;23;20015;-81
2020/12/07 03:00:55;;;;;;;15.10;7.38;;;;;;;4.48;78.37;98000.63;3850787;23;20160;-81
2020/12/07 03:02:26;;;;;;;15.38;8.80;;;;;;;4.49;78.35;98015.50;3850507;23;20013;-80
2020/12/07 03:03:58;;;;;;;12.23;7.13;;;;;;;4.55;78.42;98019.34;3839814;22;20024;-81
2020/12/07 03:05:30;;;;;;;12.52;7.05;;;;;;;4.51;78.29;98030.25;3847643;23;20013;-81
2020/12/07 03:07:01;;;;;;;12.95;7.03;;;;;;;4.49;78.32;98034.84;3848697;23;20017;-81
2020/12/07 03:08:35;;;;;;;15.77;7.32;;;;;;;4.45;78.37;98037.97;3850553;23;20025;-81
2020/12/07 03:10:06;;;;;;;12.05;6.53;;;;;;;4.47;78.40;98038.66;3847355;22;20413;-80
2020/12/07 03:11:38;;;;;;;12.02;6.60;;;;;;;4.47;78.32;98028.06;3850773;23;20044;-81
2020/12/07 03:13:11;;;;;;;12.32;6.43;;;;;;;4.48;78.24;98043.78;3847517;23;20013;-81
2020/12/07 03:14:43;;;;;;;11.50;6.30;;;;;;;4.47;78.15;98043.94;3849864;23;20032;-81
2020/12/07 03:16:15;;;;;;;13.20;7.38;;;;;;;4.45;78.21;98049.38;3845720;22;20033;-81
2020/12/07 03:17:46;;;;;;;11.68;6.65;;;;;;;4.49;78.38;98048.09;3850284;23;20021;-81
2020/12/07 03:19:17;;;;;;;13.20;6.82;;;;;;;4.50;78.30;98054.19;3847029;23;20024;-80
2020/12/07 03:20:49;;;;;;;12.90;6.10;;;;;;;4.51;78.19;98043.47;3848148;23;20541;-81
2020/12/07 03:22:22;;;;;;;15.32;7.68;;;;;;;4.53;78.03;98045.97;3842879;22;20017;-81
2020/12/07 03:23:53;;;;;;;12.73;7.47;;;;;;;4.47;77.99;98036.00;3848445;23;20036;-81
2020/12/07 03:25:24;;;;;;;13.65;7.32;;;;;;;4.53;78.23;98060.00;3846505;22;20148;-80
2020/12/07 03:26:56;;;;;;;11.68;6.80;;;;;;;4.53;78.13;98057.38;3847545;23;20021;-81
2020/12/07 03:28:27;;;;;;;11.35;6.50;;;;;;;4.62;78.25;98065.38;3845221;23;20036;-80
2020/12/07 03:29:58;;;;;;;12.02;6.70;;;;;;;4.67;78.01;98073.69;3848452;23;20037;-81
2020/12/07 03:31:30;;;;;;;14.05;6.90;;;;;;;4.64;78.05;98063.38;3844411;22;20036;-80
2020/12/07 03:33:03;;;;;;;15.48;7.53;;;;;;;4.69;78.07;98071.72;3848157;23;20021;-81
2020/12/07 03:34:35;;;;;;;10.10;5.70;;;;;;;4.77;77.99;98071.75;3846362;22;20065;-81
2020/12/07 03:36:06;;;;;;;9.45;4.65;;;;;;;4.79;77.98;98074.25;3848606;23;20035;-81
2020/12/07 03:37:38;;;;;;;10.80;6.10;;;;;;;4.71;77.84;98069.75;3844612;22;20080;-80
2020/12/07 03:39:10;;;;;;;13.32;6.90;;;;;;;4.74;77.79;98074.72;3845852;23;20032;-80
2020/12/07 03:40:41;;;;;;;10.98;6.45;;;;;;;4.75;77.85;98065.78;3843540;23;20032;-81
2020/12/07 03:42:12;;;;;;;13.00;6.82;;;;;;;4.76;77.83;98070.09;3847727;23;20027;-81
2020/12/07 03:43:43;;;;;;;10.57;6.22;;;;;;;4.71;77.98;98064.44;3846593;22;20020;-81
2020/12/07 03:45:15;;;;;;;10.73;5.55;;;;;;;4.77;77.99;98061.16;3847285;23;20040;-81
2020/12/07 03:46:46;;;;;;;10.18;5.30;;;;;;;4.78;78.06;98070.78;3828768;23;20021;-81
2020/12/07 03:48:17;;;;;;;13.10;6.65;;;;;;;4.74;77.95;98071.25;3829015;23;20070;-81
2020/12/07 03:49:49;;;;;;;10.93;5.68;;;;;;;4.81;77.84;98070.47;3843661;23;20016;-81
2020/12/07 03:51:20;;;;;;;13.35;5.90;;;;;;;4.78;77.68;98069.94;3853590;23;20021;-81
2020/12/07 03:52:52;;;;;;;9.95;5.75;;;;;;;4.76;77.90;98064.81;3849959;23;20040;-81
2020/12/07 03:54:25;;;;;;;8.55;5.30;;;;;;;4.77;77.97;98066.47;3851303;23;20041;-81
2020/12/07 03:55:56;;;;;;;13.88;6.03;;;;;;;4.75;77.80;98063.13;3845095;23;20028;-81
2020/12/07 03:57:31;;;;;;;9.68;5.63;;;;;;;4.75;77.71;98057.84;3852418;23;20025;-82
2020/12/07 03:59:02;;;;;;;8.25;4.78;;;;;;;4.75;78.02;98060.50;3846660;22;20083;-81
2020/12/07 04:00:34;;;;;;;11.23;5.25;;;;;;;4.71;78.29;98056.50;3849082;23;20049;-81
2020/12/07 04:02:05;;;;;;;12.18;6.25;;;;;;;4.72;78.26;98059.97;3843743;22;20017;-80
2020/12/07 04:03:38;;;;;;;8.00;4.82;;;;;;;4.73;78.28;98066.94;3849562;23;20013;-81
2020/12/07 04:05:17;;;;;;;9.52;4.75;;;;;;;4.73;78.03;98067.75;3847213;23;20017;-81
2020/12/07 04:06:50;;;;;;;9.13;5.30;;;;;;;4.64;77.92;98066.03;3845509;22;20012;-81
2020/12/07 04:08:24;;;;;;;7.57;4.38;;;;;;;4.71;78.03;98068.91;3848905;23;20024;-81
2020/12/07 04:09:55;;;;;;;9.15;4.00;;;;;;;4.66;78.03;98072.00;3844271;23;20021;-80
2020/12/07 04:11:28;;;;;;;9.10;4.95;;;;;;;4.61;78.36;98076.97;3848194;23;20028;-81
2020/12/07 04:13:02;;;;;;;7.70;4.28;;;;;;;4.64;78.13;98063.38;3840034;22;20026;-81
2020/12/07 04:14:34;;;;;;;8.18;4.38;;;;;;;4.66;78.15;98077.31;3831263;23;20016;-80
2020/12/07 04:16:07;;;;;;;11.10;4.63;;;;;;;4.60;77.79;98075.28;3833666;23;20036;-81
2020/12/07 04:17:40;;;;;;;7.20;4.40;;;;;;;4.63;77.83;98078.44;3851563;23;20009;-81
2020/12/07 04:19:13;;;;;;;7.10;3.85;;;;;;;4.61;78.01;98085.72;3847950;23;20044;-81
2020/12/07 04:20:50;;;;;;;6.80;3.78;;;;;;;4.60;77.74;98080.59;3849211;23;20028;-81
2020/12/07 04:22:21;;;;;;;10.27;3.78;;;;;;;4.52;77.78;98073.41;3846175;23;20028;-81
2020/12/07 04:23:53;;;;;;;6.10;3.22;;;;;;;4.53;77.84;98065.31;3849775;23;20024;-81
2020/12/07 04:25:26;;;;;;;5.82;3.03;;;;;;;4.58;77.63;98072.78;3847062;23;20029;-80
2020/12/07 04:26:58;;;;;;;7.72;3.30;;;;;;;4.54;77.75;98076.75;3849126;23;20009;-81
2020/12/07 04:28:29;;;;;;;5.50;3.10;;;;;;;4.52;77.97;98071.59;3845722;23;20017;-81
2020/12/07 04:30:04;;;;;;;5.93;3.28;;;;;;;4.58;77.64;98083.38;3849394;23;20029;-80
2020/12/07 04:31:38;;;;;;;7.55;3.60;;;;;;;4.53;78.01;98086.47;3847070;22;20021;-80
2020/12/07 04:33:29;;;;;;;5.50;3.00;;;;;;;4.51;77.70;98103.50;3847247;23;20031;-81
2020/12/07 04:35:01;;;;;;;5.60;2.50;;;;;;;4.55;77.85;98096.09;3843972;23;20043;-81
2020/12/07 04:36:35;;;;;;;6.32;3.60;;;;;;;4.48;77.96;98094.06;3852409;23;20028;-81
2020/12/07 04:38:08;;;;;;;5.85;3.20;;;;;;;4.51;77.88;98088.47;3844814;22;20028;-81
2020/12/07 04:39:40;;;;;;;5.68;2.88;;;;;;;4.50;77.85;98084.16;3840225;23;20069;-82
2020/12/07 04:41:11;;;;;;;5.85;2.97;;;;;;;4.50;77.98;98100.03;3850756;23;20044;-81
2020/12/07 04:42:44;;;;;;;5.18;2.72;;;;;;;4.52;78.00;98095.44;3847933;22;20052;-81
2020/12/07 04:44:59;;;;;;;5.32;2.85;;;;;;;4.51;77.59;98099.06;3850876;23;20084;-81
2020/12/07 04:46:32;;;;;;;5.70;2.60;;;;;;;4.54;77.73;98105.84;3845732;23;20079;-81
2020/12/07 04:48:06;;;;;;;5.25;2.75;;;;;;;4.61;77.52;98114.00;3851074;23;20086;-81
2020/12/07 04:49:37;;;;;;;6.13;3.10;;;;;;;4.58;77.52;98112.47;3849454;22;20012;-82
2020/12/07 04:51:18;;;;;;;5.25;2.65;;;;;;;4.55;77.44;98117.25;3852973;23;20076;-81
2020/12/07 04:52:49;;;;;;;5.22;2.42;;;;;;;4.57;77.68;98121.44;3852212;23;20009;-80
2020/12/07 04:54:22;;;;;;;4.55;2.33;;;;;;;4.55;77.57;98117.25;3848114;23;20025;-81
2020/12/07 04:55:56;;;;;;;6.45;2.85;;;;;;;4.55;77.62;98126.03;3841962;22;20032;-81
2020/12/07 04:57:29;;;;;;;6.28;2.95;;;;;;;4.52;77.94;98131.63;3840724;23;20025;-81
2020/12/07 04:59:01;;;;;;;5.30;2.53;;;;;;;4.53;77.89;98131.47;3839006;22;20045;-81
2020/12/07 05:00:38;;;;;;;7.07;3.08;;;;;;;4.51;77.51;98130.81;3842968;23;20032;-81
2020/12/07 05:02:10;;;;;;;5.10;2.42;;;;;;;4.50;77.76;98139.72;3838587;23;20442;-81
2020/12/07 05:03:42;;;;;;;6.97;2.88;;;;;;;4.42;77.93;98134.38;3837974;22;20025;-81
2020/12/07 05:05:14;;;;;;;5.50;3.05;;;;;;;4.41;78.02;98138.00;3840211;23;20029;-80
2020/12/07 05:06:57;;;;;;;5.53;2.50;;;;;;;4.40;78.04;98130.19;3840284;22;20362;-80
2020/12/07 05:08:38;;;;;;;5.90;2.70;;;;;;;4.38;78.03;98143.59;3842959;23;20025;-80
2020/12/07 05:10:12;;;;;;;;;;;;;;;4.27;78.25;98135.88;3836370;23;20021;-80
2020/12/07 05:11:48;;;;;;;4.57;2.30;;;;;;;4.29;78.37;98128.63;3823662;23;19928;-81
2020/12/07 05:14:00;;;;;;;4.50;2.38;;;;;;;4.35;77.90;98128.84;3824547;23;20028;-81
2020/12/07 05:15:31;;;;;;;4.68;2.20;;;;;;;4.41;77.85;98135.34;3839426;23;20027;-80
2020/12/07 05:17:03;;;;;;;4.88;2.47;;;;;;;4.40;77.92;98123.09;3832616;23;20025;-81
2020/12/07 05:18:34;;;;;;;4.55;2.25;;;;;;;4.43;77.90;98125.44;3842626;23;20021;-80
2020/12/07 05:20:08;;;;;;;4.60;2.30;;;;;;;4.43;78.12;98130.75;3840446;22;20040;-81
2020/12/07 05:22:20;;;;;;;4.28;2.40;;;;;;;4.45;77.97;98134.03;3837380;22;20017;-81
2020/12/07 05:23:54;;;;;;;4.38;1.98;;;;;;;4.42;78.02;98134.38;3838647;23;20088;-81
2020/12/07 05:25:26;;;;;;;4.68;2.22;;;;;;;4.39;78.17;98129.38;3837456;23;20021;-81
2020/12/07 05:27:00;;;;;;;8.65;2.40;;;;;;;4.35;78.13;98134.16;3842744;23;20021;-81
2020/12/07 05:28:41;;;;;;;4.82;2.25;;;;;;;4.33;78.48;98132.63;3836594;22;20025;-81
2020/12/07 05:30:25;;;;;;;5.22;2.22;;;;;;;4.29;78.31;98133.91;3842281;23;20029;-81
2020/12/07 05:31:58;;;;;;;5.50;2.72;;;;;;;4.29;78.74;98137.41;3814900;23;20088;-81
2020/12/07 05:33:30;;;;;;;4.03;1.90;;;;;;;4.29;78.39;98124.19;3846096;23;20024;-80
2020/12/07 05:35:04;;;;;;;4.90;2.42;;;;;;;4.33;78.47;98136.09;3837827;22;20025;-80
2020/12/07 05:36:35;;;;;;;5.75;2.15;;;;;;;4.31;78.53;98131.94;3844163;23;20025;-81
2020/12/07 05:38:07;;;;;;;4.45;1.60;;;;;;;4.37;78.31;98129.53;3842828;22;20056;-81
2020/12/07 05:40:00;;;;;;;4.97;1.88;;;;;;;4.33;78.44;98127.34;3845218;22;20074;-81
2020/12/07 05:43:42;;;;;;;4.25;2.03;;;;;;;4.32;78.61;98123.03;3783021;23;20026;-82
2020/12/07 05:45:40;;;;;;;5.68;2.45;;;;;;;4.31;78.87;98127.47;3802287;23;20022;-81
2020/12/07 05:47:23;;;;;;;4.68;2.13;;;;;;;4.34;78.70;98136.94;3833267;23;20025;-81
2020/12/07 05:49:01;;;;;;;4.80;2.70;;;;;;;4.35;78.60;98130.66;3826519;22;20024;-81
2020/12/07 05:50:53;;;;;;;4.72;2.50;;;;;;;4.41;78.66;98135.34;3824920;23;20081;-80
2020/12/07 05:52:41;;;;;;;6.15;2.25;;;;;;;4.27;78.74;98130.56;3788561;22;20366;-81
2020/12/07 06:01:01;;;;;;;4.18;1.83;;;;;;;4.27;78.98;98147.28;3789687;23;20024;-81
2020/12/07 06:02:38;;;;;;;4.78;2.08;;;;;;;4.30;78.87;98138.22;3843120;23;20052;-80
2020/12/07 06:04:13;;;;;;;5.10;2.38;;;;;;;4.29;78.84;98136.56;3835780;23;20087;-81
2020/12/07 06:06:31;;;;;;;3.92;2.00;;;;;;;4.24;78.97;98138.84;3837219;23;20028;-81
2020/12/07 06:08:07;;;;;;;4.50;2.20;;;;;;;4.25;79.19;98138.69;3814128;22;20009;-82
2020/12/07 06:09:41;;;;;;;4.28;2.40;;;;;;;4.33;79.01;98151.97;3820755;22;20032;-81
2020/12/07 06:13:40;;;;;;;6.93;1.95;;;;;;;4.26;79.03;98155.38;3841029;23;20331;-81
2020/12/07 06:15:12;;;;;;;4.25;2.08;;;;;;;4.29;79.14;98148.00;3843227;23;20028;-82
2020/12/07 06:16:43;;;;;;;4.43;2.28;;;;;;;4.27;79.07;98143.81;3841007;22;20053;-81
2020/12/07 06:18:28;;;;;;;4.65;2.22;;;;;;;4.36;78.88;98156.97;3846629;23;20017;-80
2020/12/07 06:20:32;;;;;;;5.10;1.67;;;;;;;4.43;78.87;98156.34;3842799;23;20025;-81
2020/12/07 06:22:06;;;;;;;4.60;2.58;;;;;;;4.44;78.84;98148.25;3840383;22;20037;-82
2020/12/07 06:23:41;;;;;;;3.95;2.00;;;;;;;4.45;78.72;98154.41;3846034;23;20473;-81
2020/12/07 06:25:21;;;;;;;4.30;2.15;;;;;;;4.42;78.46;98147.59;3842876;23;20048;-81
2020/12/07 06:27:04;;;;;;;4.65;2.15;;;;;;;4.32;78.47;98137.09;3847913;23;20021;-80
2020/12/07 06:28:37;;;;;;;4.15;1.70;;;;;;;4.36;78.81;98145.53;3836117;22;20021;-80
2020/12/07 06:30:08;;;;;;;4.22;2.03;;;;;;;4.36;78.79;98156.13;3843581;23;20025;-82
2020/12/07 06:31:40;;;;;;;5.30;2.22;;;;;;;4.31;78.83;98153.94;3841179;23;20031;-80
2020/12/07 06:33:10;;;;;;;4.75;2.00;;;;;;;4.40;78.67;98160.16;3844419;23;20033;-80
2020/12/07 06:34:43;;;;;;;5.10;1.92;;;;;;;4.44;78.64;98166.78;3843912;22;20029;-79
2020/12/07 06:36:25;;;;;;;4.72;2.00;;;;;;;4.43;78.39;98167.78;3845289;23;20021;-81
2020/12/07 06:38:02;;;;;;;4.85;1.98;;;;;;;4.44;78.08;98168.59;3840072;23;20025;-80
2020/12/07 06:39:44;;;;;;;4.28;1.98;;;;;;;4.47;78.17;98173.59;3848182;23;20075;-80
2020/12/07 06:41:17;;;;;;;3.70;1.65;;;;;;;4.51;78.08;98170.50;3842296;23;20537;-80
2020/12/07 06:42:48;;;;;;;3.80;1.55;;;;;;;4.55;78.08;98165.72;3842647;23;20021;-79
2020/12/07 06:44:23;;;;;;;5.25;2.10;;;;;;;4.57;77.85;98169.06;3844236;23;20033;-79
2020/12/07 06:45:54;;;;;;;4.32;1.73;;;;;;;4.62;77.68;98176.56;3843784;22;20021;-80
2020/12/07 06:47:27;;;;;;;5.30;2.10;;;;;;;4.59;77.73;98177.66;3846112;23;20044;-81
2020/12/07 06:49:04;;;;;;;3.88;1.52;;;;;;;4.56;77.56;98183.28;3838650;23;20045;-81
2020/12/07 06:50:37;;;;;;;4.07;1.27;;;;;;;4.61;77.43;98196.88;3824863;23;20025;-80
2020/12/07 06:52:11;;;;;;;3.78;1.65;;;;;;;4.60;77.29;98186.44;3830864;22;20067;-81
2020/12/07 06:53:47;;;;;;;4.97;1.20;;;;;;;4.61;77.30;98186.28;3849685;23;20032;-81
2020/12/07 06:55:20;;;;;;;4.28;1.30;;;;;;;4.69;76.99;98185.53;3839687;23;20035;-80
2020/12/07 06:56:54;;;;;;;4.07;1.30;;;;;;;4.70;76.71;98184.56;3846794;23;20088;-81
2020/12/07 06:58:38;;;;;;;4.13;1.10;;;;;;;4.72;76.50;98182.59;3843197;22;20028;-81
2020/12/07 07:00:11;;;;;;;3.38;1.60;;;;;;;4.76;76.73;98189.22;3849611;23;20072;-80
2020/12/07 07:01:53;;;;;;;4.22;1.80;;;;;;;4.66;76.58;98191.13;3829959;23;20029;-81
2020/12/07 07:03:26;;;;;;;4.05;1.80;;;;;;;4.66;76.52;98191.13;3831740;23;20025;-81
2020/12/07 07:07:06;;;;;;;4.20;1.88;;;;;;;4.59;76.84;98198.03;3843156;22;20016;-81
2020/12/07 07:08:37;;;;;;;5.85;2.20;;;;;;;4.55;76.93;98212.53;3847445;23;20025;-81
2020/12/07 07:10:10;;;;;;;5.03;2.30;;;;;;;4.48;76.99;98221.06;3840481;22;20035;-81
2020/12/07 07:11:42;;;;;;;4.55;2.40;;;;;;;4.39;77.14;98211.41;3843353;23;20088;-81
2020/12/07 07:13:26;;;;;;;4.65;2.05;;;;;;;4.40;77.01;98231.59;3839524;22;20021;-81
2020/12/07 07:17:30;;;;;;;4.60;1.70;;;;;;;4.37;77.46;98231.88;3843248;23;20192;-81
2020/12/07 07:21:30;;;;;;;4.75;2.05;;;;;;;4.43;76.97;98217.22;3849204;23;20012;-81
2020/12/07 07:23:05;;;;;;;4.43;2.13;;;;;;;4.43;77.10;98217.22;3828323;23;20028;-81
2020/12/07 07:24:47;;;;;;;5.47;2.30;;;;;;;4.43;76.90;98220.72;3832840;23;20044;-80
2020/12/07 07:26:21;;;;;;;4.50;2.42;;;;;;;4.40;77.26;98214.84;3849066;23;20032;-81
2020/12/07 07:28:05;;;;;;;4.35;2.05;;;;;;;4.42;77.18;98219.03;3843836;23;20021;-81
2020/12/07 07:29:36;;;;;;;4.75;2.47;;;;;;;4.40;77.10;98213.06;3833828;23;20022;-80
2020/12/07 07:31:10;;;;;;;4.38;2.17;;;;;;;4.40;77.03;98220.16;3815648;22;20017;-81
2020/12/07 07:32:47;;;;;;;4.95;2.85;;;;;;;4.43;77.05;98227.78;3836300;23;20052;-82
2020/12/07 07:34:32;;;;;;;4.82;2.53;;;;;;;4.38;76.84;98236.19;3841373;23;20056;-81
2020/12/07 07:36:03;;;;;;;5.68;2.72;;;;;;;4.42;77.30;98229.63;3855984;23;20031;-81
2020/12/07 07:40:22;;;;;;;6.20;2.83;;;;;;;4.39;77.05;98240.50;3850255;23;20013;-81
2020/12/07 07:41:53;;;;;;;6.70;3.33;;;;;;;4.42;77.24;98245.50;3852879;23;20024;-81
2020/12/07 07:43:25;;;;;;;6.75;3.30;;;;;;;4.49;77.03;98245.72;3842039;22;20006;-81
2020/12/07 07:44:58;;;;;;;5.55;2.50;;;;;;;4.55;76.97;98247.78;3835950;23;20009;-80
2020/12/07 07:49:11;;;;;;;9.85;3.33;;;;;;;4.37;77.05;98250.41;3827364;22;20483;-81